createdAt,value
2018-03-07T00:00:05.509Z,65.40
2018-03-07T00:02:33.130Z,65.80
2018-03-07T00:05:00.710Z,66.30
2018-03-07T00:07:29.073Z,66.30
2018-03-07T00:09:56.638Z,66.30
2018-03-07T00:12:24.282Z,66.10
2018-03-07T00:14:52.653Z,64.30
2018-03-07T00:17:20.259Z,64.40
2018-03-07T00:19:48.596Z,66.30
2018-03-07T00:22:16.203Z,66.20
2018-03-07T00:24:43.767Z,65.50
2018-03-07T00:27:11.360Z,63.80
2018-03-07T00:29:38.929Z,64.60
2018-03-07T00:32:07.125Z,63.40
2018-03-07T00:34:34.694Z,66.70
2018-03-07T00:37:02.308Z,65.90
2018-03-07T00:39:29.922Z,65.30
2018-03-07T00:41:58.288Z,64.10
2018-03-07T00:44:26.655Z,66.10
2018-03-07T00:46:54.226Z,66.10
2018-03-07T00:49:21.818Z,65.40
2018-03-07T00:51:49.396Z,65.60
2018-03-07T00:54:16.991Z,64.40
2018-03-07T00:56:44.580Z,64.10
2018-03-07T00:59:12.170Z,63.20
2018-03-07T01:01:39.757Z,64.20
2018-03-07T01:04:07.402Z,64.60
2018-03-07T01:06:34.973Z,64.30
2018-03-07T01:09:02.642Z,64.40
2018-03-07T01:11:30.961Z,65.60
2018-03-07T01:13:58.569Z,65.30
2018-03-07T01:16:26.170Z,66.80
2018-03-07T01:18:54.556Z,63.60
2018-03-07T01:21:22.120Z,63.50
2018-03-07T01:23:49.728Z,64.80
2018-03-07T01:26:17.300Z,65.60
2018-03-07T01:28:45.793Z,65.30
2018-03-07T01:31:14.141Z,65.70
2018-03-07T01:33:41.733Z,65.70
2018-03-07T01:36:09.309Z,65.50
2018-03-07T01:38:36.908Z,65.00
2018-03-07T01:41:04.489Z,64.30
2018-03-07T01:43:32.082Z,66.20
2018-03-07T01:45:59.645Z,65.60
2018-03-07T01:48:27.239Z,65.10
2018-03-07T01:50:54.813Z,66.10
2018-03-07T01:53:22.405Z,66.00
2018-03-07T01:55:50.742Z,67.10
2018-03-07T01:58:18.338Z,67.00
2018-03-07T02:00:46.669Z,65.60
2018-03-07T02:03:14.257Z,65.50
2018-03-07T02:05:42.009Z,64.30
2018-03-07T02:08:10.382Z,63.60
2018-03-07T02:10:38.711Z,65.40
2018-03-07T02:13:06.274Z,65.30
2018-03-07T02:15:34.066Z,64.40
2018-03-07T02:18:01.673Z,64.70
2018-03-07T02:20:30.050Z,64.20
2018-03-07T02:22:57.626Z,64.20
2018-03-07T02:25:25.986Z,64.90
2018-03-07T02:27:53.572Z,64.80
2018-03-07T02:30:21.173Z,64.70
2018-03-07T02:32:48.813Z,67.20
2018-03-07T02:35:16.398Z,65.40
2018-03-07T02:37:43.984Z,66.50
2018-03-07T02:40:12.347Z,64.60
2018-03-07T02:42:39.923Z,64.50
2018-03-07T02:45:07.518Z,63.90
2018-03-07T02:47:35.120Z,66.90
2018-03-07T02:50:02.726Z,65.10
2018-03-07T02:52:30.294Z,64.90
2018-03-07T02:54:57.883Z,66.00
2018-03-07T02:57:25.468Z,67.50
2018-03-07T02:59:53.059Z,65.00
2018-03-07T03:02:20.630Z,67.40
2018-03-07T03:04:48.245Z,65.60
2018-03-07T03:07:15.837Z,65.20
2018-03-07T03:09:43.441Z,66.70
2018-03-07T03:12:11.015Z,65.40
2018-03-07T03:14:38.641Z,64.30
2018-03-07T03:17:06.207Z,66.40
2018-03-07T03:19:33.798Z,65.40
2018-03-07T03:22:01.363Z,67.50
2018-03-07T03:24:30.899Z,66.40
2018-03-07T03:26:58.479Z,68.20
2018-03-07T03:29:26.050Z,66.20
2018-03-07T03:31:53.644Z,66.70
2018-03-07T03:34:21.253Z,64.00
2018-03-07T03:36:48.846Z,66.70
2018-03-07T03:39:16.419Z,64.20
2018-03-07T03:41:44.006Z,66.20
2018-03-07T03:44:12.343Z,66.20
2018-03-07T03:46:39.948Z,66.10
2018-03-07T03:49:07.516Z,67.90
2018-03-07T03:51:35.118Z,67.00
2018-03-07T03:54:02.685Z,66.00
2018-03-07T03:56:30.279Z,66.30
2018-03-07T03:58:58.617Z,66.80
2018-03-07T04:01:26.210Z,66.80
2018-03-07T04:03:53.779Z,68.20
2018-03-07T04:06:21.369Z,66.80
2018-03-07T04:08:48.933Z,68.10
2018-03-07T04:11:16.527Z,71.40
2018-03-07T04:13:44.101Z,69.20
2018-03-07T04:16:11.700Z,65.10
2018-03-07T04:18:39.277Z,65.70
2018-03-07T04:21:06.870Z,67.20
2018-03-07T04:23:34.445Z,70.10
2018-03-07T04:26:02.810Z,65.60
2018-03-07T04:28:33.617Z,66.50
2018-03-07T04:31:01.210Z,66.40
2018-03-07T04:33:28.782Z,69.50
2018-03-07T04:35:56.380Z,66.00
2018-03-07T04:38:23.962Z,67.70
2018-03-07T04:40:51.542Z,66.80
2018-03-07T04:43:19.911Z,67.10
2018-03-07T04:45:47.494Z,67.00
2018-03-07T04:48:15.085Z,66.30
2018-03-07T04:50:42.707Z,65.60
2018-03-07T04:53:10.845Z,65.60
2018-03-07T04:55:38.572Z,67.00
2018-03-07T04:58:06.165Z,67.10
2018-03-07T05:00:33.758Z,67.50
2018-03-07T05:03:02.203Z,66.70
2018-03-07T05:05:29.789Z,66.60
2018-03-07T05:07:58.162Z,65.70
2018-03-07T05:10:27.552Z,65.90
2018-03-07T05:12:55.398Z,65.80
2018-03-07T05:15:22.971Z,66.70
2018-03-07T05:17:50.803Z,67.00
2018-03-07T05:20:18.379Z,68.90
2018-03-07T05:22:45.983Z,68.50
2018-03-07T05:25:14.321Z,66.60
2018-03-07T05:27:41.932Z,66.60
2018-03-07T05:30:09.506Z,68.40
2018-03-07T05:32:37.736Z,66.40
2018-03-07T05:35:05.351Z,66.90
2018-03-07T05:37:32.941Z,68.60
2018-03-07T05:40:00.569Z,71.10
2018-03-07T05:42:28.165Z,70.40
2018-03-07T05:44:55.728Z,68.50
2018-03-07T05:47:23.353Z,68.80
2018-03-07T05:49:50.923Z,69.90
2018-03-07T05:52:19.022Z,69.10
2018-03-07T05:54:46.617Z,70.80
2018-03-07T05:57:14.196Z,71.90
2018-03-07T05:59:41.962Z,69.10
2018-03-07T06:02:09.702Z,72.10
2018-03-07T06:04:37.313Z,68.80
2018-03-07T06:07:04.885Z,68.40
2018-03-07T06:09:32.476Z,68.20
2018-03-07T06:12:00.049Z,68.90
2018-03-07T06:14:27.688Z,70.30
2018-03-07T06:16:55.233Z,70.00
2018-03-07T06:19:23.594Z,70.90
2018-03-07T06:21:51.174Z,70.70
2018-03-07T06:24:19.538Z,71.20
2018-03-07T06:26:47.126Z,71.20
2018-03-07T06:29:14.720Z,70.50
2018-03-07T06:31:42.302Z,71.80
2018-03-07T06:34:09.912Z,69.10
2018-03-07T06:36:37.488Z,70.30
2018-03-07T06:39:06.039Z,72.30
2018-03-07T06:41:34.376Z,72.50
2018-03-07T06:44:01.965Z,72.50
2018-03-07T06:46:29.566Z,70.90
2018-03-07T06:48:57.150Z,70.50
2018-03-07T06:51:24.716Z,70.60
2018-03-07T06:53:52.310Z,70.20
2018-03-07T06:56:20.633Z,70.80
2018-03-07T06:58:48.221Z,70.70
2018-03-07T07:01:15.819Z,70.30
2018-03-07T07:03:43.406Z,72.80
2018-03-07T07:06:10.979Z,70.40
2018-03-07T07:08:39.338Z,71.70
2018-03-07T07:11:06.910Z,71.80
2018-03-07T07:13:34.493Z,70.50
2018-03-07T07:16:02.057Z,70.60
2018-03-07T07:18:29.622Z,70.90
2018-03-07T07:20:57.241Z,71.30
2018-03-07T07:23:24.800Z,72.90
2018-03-07T07:25:52.385Z,72.00
2018-03-07T07:28:19.977Z,71.80
2018-03-07T07:30:48.341Z,71.90
2018-03-07T07:33:15.900Z,71.90
2018-03-07T07:35:44.252Z,71.40
2018-03-07T07:38:11.818Z,71.40
2018-03-07T07:40:39.456Z,71.90
2018-03-07T07:43:06.998Z,72.10
2018-03-07T07:45:34.581Z,73.20
2018-03-07T07:48:02.162Z,73.00
2018-03-07T07:50:29.753Z,71.80
2018-03-07T07:52:57.322Z,72.30
2018-03-07T07:55:24.913Z,72.70
2018-03-07T07:57:52.484Z,72.60
2018-03-07T08:00:20.090Z,71.20
2018-03-07T08:02:47.694Z,70.90
2018-03-07T08:05:15.277Z,70.80
2018-03-07T08:07:42.854Z,71.90
2018-03-07T08:10:10.445Z,72.30
2018-03-07T08:12:38.061Z,70.00
2018-03-07T08:15:05.644Z,69.90
2018-03-07T08:17:33.213Z,69.50
2018-03-07T08:20:00.796Z,70.70
2018-03-07T08:22:28.362Z,69.60
2018-03-07T08:24:55.949Z,69.60
2018-03-07T08:27:23.542Z,69.00
2018-03-07T08:29:51.137Z,68.10
2018-03-07T08:32:18.715Z,68.10
2018-03-07T08:34:46.327Z,67.80
2018-03-07T08:37:13.899Z,67.10
2018-03-07T08:39:41.452Z,67.60
2018-03-07T08:42:09.061Z,67.50
2018-03-07T08:44:36.620Z,67.30
2018-03-07T08:47:04.197Z,66.50
2018-03-07T08:49:32.533Z,65.40
2018-03-07T08:52:00.129Z,65.40
2018-03-07T08:54:28.461Z,65.00
2018-03-07T08:56:56.058Z,64.90
2018-03-07T08:59:23.620Z,64.20
2018-03-07T09:01:51.206Z,64.30
2018-03-07T09:04:18.783Z,65.10
2018-03-07T09:06:46.374Z,64.30
2018-03-07T09:09:13.945Z,63.50
2018-03-07T09:11:41.529Z,61.00
2018-03-07T09:14:09.868Z,58.30
2018-03-07T09:16:37.473Z,58.30
2018-03-07T09:19:05.045Z,59.20
2018-03-07T09:21:32.633Z,57.60
2018-03-07T09:24:00.273Z,58.40
2018-03-07T09:26:27.862Z,58.60
2018-03-07T09:28:55.541Z,56.90
2018-03-07T09:31:23.098Z,55.90
2018-03-07T09:33:50.676Z,57.20
2018-03-07T09:36:19.901Z,55.80
2018-03-07T09:38:47.481Z,53.80
2018-03-07T09:41:15.070Z,54.20
2018-03-07T09:43:42.670Z,55.20
2018-03-07T09:46:10.252Z,53.80
2018-03-07T09:48:37.817Z,54.70
2018-03-07T09:51:05.435Z,52.40
2018-03-07T09:53:33.766Z,53.80
2018-03-07T09:56:01.332Z,53.80
2018-03-07T09:58:28.921Z,55.00
2018-03-07T10:00:56.493Z,54.90
2018-03-07T10:03:24.849Z,54.00
2018-03-07T10:05:52.417Z,53.80
2018-03-07T10:08:20.008Z,54.30
2018-03-07T10:10:47.580Z,52.90
2018-03-07T10:13:15.161Z,53.90
2018-03-07T10:15:43.489Z,54.60
2018-03-07T10:18:11.077Z,54.70
2018-03-07T10:20:38.647Z,54.30
2018-03-07T10:23:06.251Z,54.50
2018-03-07T10:25:33.826Z,54.80
2018-03-07T10:28:03.125Z,54.90
2018-03-07T10:30:30.698Z,54.90
2018-03-07T10:32:58.323Z,53.20
2018-03-07T10:35:27.402Z,53.00
2018-03-07T10:37:55.030Z,53.00
2018-03-07T10:40:22.588Z,51.90
2018-03-07T10:42:50.178Z,50.90
2018-03-07T10:45:17.750Z,50.10
2018-03-07T10:47:45.342Z,49.90
2018-03-07T10:50:12.914Z,50.40
2018-03-07T10:52:40.520Z,49.40
2018-03-07T10:55:08.090Z,48.80
2018-03-07T10:57:36.456Z,47.50
2018-03-07T11:00:04.017Z,47.60
2018-03-07T11:02:31.621Z,47.20
2018-03-07T11:04:59.203Z,49.40
2018-03-07T11:07:26.764Z,44.70
2018-03-07T11:09:54.357Z,44.50
2018-03-07T11:12:21.924Z,42.60
2018-03-07T11:14:50.281Z,44.50
2018-03-07T11:17:17.856Z,44.40
2018-03-07T11:19:45.447Z,45.80
2018-03-07T11:22:13.013Z,46.30
2018-03-07T11:24:40.615Z,46.20
2018-03-07T11:27:08.187Z,45.40
2018-03-07T11:29:35.772Z,43.90
2018-03-07T11:32:04.124Z,44.90
2018-03-07T11:34:31.718Z,44.90
2018-03-07T11:36:59.296Z,44.30
2018-03-07T11:39:26.881Z,45.00
2018-03-07T11:41:55.218Z,46.20
2018-03-07T11:44:22.807Z,46.20
2018-03-07T11:46:50.382Z,45.80
2018-03-07T11:49:17.979Z,46.10
2018-03-07T11:51:45.540Z,46.60
2018-03-07T11:54:13.898Z,46.40
2018-03-07T11:56:41.473Z,46.30
2018-03-07T11:59:09.063Z,45.40
2018-03-07T12:01:36.627Z,45.30
2018-03-07T12:04:04.215Z,47.30
2018-03-07T12:06:31.781Z,46.10
2018-03-07T12:08:59.344Z,45.50
2018-03-07T12:11:26.930Z,46.30
2018-03-07T12:13:54.497Z,45.90
2018-03-07T12:16:22.084Z,46.20
2018-03-07T12:18:49.654Z,46.70
2018-03-07T12:21:17.245Z,47.30
2018-03-07T12:23:44.805Z,46.90
2018-03-07T12:26:12.403Z,46.10
2018-03-07T12:28:39.969Z,47.20
2018-03-07T12:31:08.341Z,47.00
2018-03-07T12:33:35.917Z,46.90
2018-03-07T12:36:03.514Z,46.30
2018-03-07T12:38:31.090Z,45.80
2018-03-07T12:40:59.445Z,45.00
2018-03-07T12:43:27.005Z,45.00
2018-03-07T12:45:54.593Z,46.80
2018-03-07T12:48:24.978Z,46.80
2018-03-07T12:50:52.574Z,46.70
2018-03-07T12:53:20.138Z,46.80
2018-03-07T12:55:49.486Z,46.90
2018-03-07T12:58:17.067Z,46.90
2018-03-07T13:00:45.873Z,46.90
2018-03-07T13:03:13.702Z,45.20
2018-03-07T13:05:41.404Z,46.70
2018-03-07T13:08:08.992Z,46.20
2018-03-07T13:10:36.582Z,46.60
2018-03-07T13:13:04.201Z,45.50
2018-03-07T13:15:31.761Z,45.70
2018-03-07T13:17:59.338Z,46.40
2018-03-07T13:20:26.958Z,46.40
2018-03-07T13:22:55.296Z,45.80
2018-03-07T13:25:23.093Z,45.10
2018-03-07T13:27:50.758Z,44.90
2018-03-07T13:30:19.144Z,46.10
2018-03-07T13:32:47.330Z,46.10
2018-03-07T13:35:15.737Z,44.20
2018-03-07T13:37:43.330Z,45.00
2018-03-07T13:40:10.910Z,43.60
2018-03-07T13:42:38.510Z,45.90
2018-03-07T13:45:06.080Z,44.50
2018-03-07T13:47:33.665Z,45.00
2018-03-07T13:50:01.233Z,43.80
2018-03-07T13:52:28.824Z,44.60
2018-03-07T13:54:56.397Z,44.50
2018-03-07T13:57:23.986Z,45.00
2018-03-07T13:59:51.557Z,44.60
2018-03-07T14:02:19.145Z,44.20
2018-03-07T14:04:47.482Z,44.60
2018-03-07T14:07:15.070Z,44.50
2018-03-07T14:09:42.634Z,45.00
2018-03-07T14:12:10.990Z,44.10
2018-03-07T14:14:38.568Z,44.10
2018-03-07T14:17:06.921Z,43.60
2018-03-07T14:19:34.494Z,43.50
2018-03-07T14:22:02.107Z,43.50
2018-03-07T14:24:29.700Z,44.80
2018-03-07T14:26:57.307Z,43.80
2018-03-07T14:29:24.871Z,44.00
2018-03-07T14:31:52.437Z,45.40
2018-03-07T14:34:20.029Z,45.20
2018-03-07T14:36:47.607Z,43.10
2018-03-07T14:39:15.196Z,43.60
2018-03-07T14:41:42.761Z,43.80
2018-03-07T14:44:10.349Z,44.10
2018-03-07T14:46:37.920Z,44.90
2018-03-07T14:49:05.513Z,44.70
2018-03-07T14:51:33.078Z,45.10
2018-03-07T14:54:01.435Z,45.40
2018-03-07T14:56:29.011Z,45.40
2018-03-07T14:58:57.364Z,45.50
2018-03-07T15:01:24.924Z,45.50
2018-03-07T15:03:52.519Z,46.20
2018-03-07T15:06:20.080Z,45.80
2018-03-07T15:08:48.447Z,46.10
2018-03-07T15:11:16.785Z,46.90
2018-03-07T15:13:44.387Z,46.90
2018-03-07T15:16:12.729Z,47.30
2018-03-07T15:18:40.333Z,47.30
2018-03-07T15:21:07.912Z,47.40
2018-03-07T15:23:35.521Z,47.50
2018-03-07T15:26:03.150Z,47.80
2018-03-07T15:28:30.746Z,48.30
2018-03-07T15:30:58.346Z,49.00
2018-03-07T15:33:25.942Z,49.60
2018-03-07T15:35:53.771Z,49.90
2018-03-07T15:38:21.342Z,50.20
2018-03-07T15:40:48.938Z,50.30
2018-03-07T15:43:16.519Z,50.30
2018-03-07T15:45:44.876Z,52.30
2018-03-07T15:48:12.453Z,52.20
2018-03-07T15:50:40.820Z,53.00
2018-03-07T15:53:08.413Z,53.10
2018-03-07T15:55:36.013Z,52.60
2018-03-07T15:58:03.573Z,52.70
2018-03-07T16:00:31.976Z,53.70
2018-03-07T16:02:59.618Z,53.50
2018-03-07T16:05:27.221Z,53.70
2018-03-07T16:07:55.561Z,53.70
2018-03-07T16:10:23.153Z,53.70
2018-03-07T16:12:51.493Z,53.30
2018-03-07T16:15:19.098Z,53.30
2018-03-07T16:17:46.677Z,54.10
2018-03-07T16:20:15.146Z,53.70
2018-03-07T16:22:42.717Z,54.20
2018-03-07T16:25:10.314Z,54.60
2018-03-07T16:27:37.877Z,55.10
2018-03-07T16:30:05.461Z,55.30
2018-03-07T16:32:33.801Z,54.60
2018-03-07T16:35:01.395Z,54.60
2018-03-07T16:37:30.166Z,55.70
2018-03-07T16:39:57.745Z,55.70
2018-03-07T16:42:26.115Z,55.60
2018-03-07T16:44:53.684Z,55.60
2018-03-07T16:47:22.050Z,56.60
2018-03-07T16:49:51.534Z,56.10
2018-03-07T16:52:19.181Z,56.00
2018-03-07T16:54:46.763Z,55.50
2018-03-07T16:57:14.354Z,56.50
2018-03-07T16:59:43.407Z,55.80
2018-03-07T17:02:11.039Z,55.80
2018-03-07T17:04:41.686Z,55.70
2018-03-07T17:07:09.380Z,56.60
2018-03-07T17:09:36.925Z,56.80
2018-03-07T17:12:04.652Z,56.60
2018-03-07T17:14:32.255Z,56.40
2018-03-07T17:16:59.858Z,55.50
2018-03-07T17:19:27.438Z,55.60
2018-03-07T17:21:55.035Z,56.70
2018-03-07T17:24:23.448Z,55.80
2018-03-07T17:26:51.077Z,56.10
2018-03-07T17:29:18.663Z,56.80
2018-03-07T17:31:46.289Z,56.90
2018-03-07T17:34:13.865Z,56.80
2018-03-07T17:36:42.217Z,56.20
2018-03-07T17:39:09.804Z,56.20
2018-03-07T17:41:37.386Z,57.30
2018-03-07T17:44:04.955Z,57.70
2018-03-07T17:46:32.542Z,57.10
2018-03-07T17:49:00.118Z,57.70
2018-03-07T17:51:27.709Z,57.90
2018-03-07T17:53:55.284Z,58.00
2018-03-07T17:56:22.886Z,57.50
2018-03-07T17:58:50.494Z,57.10
2018-03-07T18:01:18.081Z,58.00
2018-03-07T18:03:45.683Z,57.90
2018-03-07T18:06:13.258Z,57.40
2018-03-07T18:08:41.622Z,57.90
2018-03-07T18:11:09.952Z,58.90
2018-03-07T18:13:37.540Z,58.20
2018-03-07T18:16:05.122Z,58.20
2018-03-07T18:18:32.721Z,58.40
2018-03-07T18:21:00.282Z,58.60
2018-03-07T18:23:27.914Z,57.50
2018-03-07T18:25:56.257Z,57.70
2018-03-07T18:28:23.858Z,57.60
2018-03-07T18:30:51.422Z,57.70
2018-03-07T18:33:19.004Z,57.50
2018-03-07T18:35:46.585Z,57.20
2018-03-07T18:38:14.562Z,57.70
2018-03-07T18:40:42.138Z,57.70
2018-03-07T18:43:09.744Z,57.80
2018-03-07T18:45:37.314Z,58.60
2018-03-07T18:48:04.903Z,58.70
2018-03-07T18:50:32.469Z,58.30
2018-03-07T18:53:00.054Z,59.00
2018-03-07T18:55:27.631Z,57.90
2018-03-07T18:57:56.021Z,58.70
2018-03-07T19:00:24.125Z,58.80
2018-03-07T19:02:52.447Z,59.00
2018-03-07T19:05:20.764Z,61.40
2018-03-07T19:07:48.320Z,61.00
2018-03-07T19:10:16.606Z,60.10
2018-03-07T19:12:44.165Z,59.10
2018-03-07T19:15:11.800Z,59.40
2018-03-07T19:17:39.410Z,59.90
2018-03-07T19:20:07.002Z,58.80
2018-03-07T19:22:34.566Z,59.40
2018-03-07T19:25:02.166Z,58.90
2018-03-07T19:27:29.730Z,58.30
2018-03-07T19:29:57.318Z,58.90
2018-03-07T19:32:24.885Z,58.80
2018-03-07T19:34:52.481Z,59.50
2018-03-07T19:37:20.045Z,60.80
2018-03-07T19:39:48.433Z,61.50
2018-03-07T19:42:16.461Z,61.50
2018-03-07T19:44:44.053Z,61.80
2018-03-07T19:47:11.646Z,60.50
2018-03-07T19:49:39.572Z,61.10
2018-03-07T19:52:07.954Z,61.80
2018-03-07T19:54:35.556Z,61.80
2018-03-07T19:57:03.125Z,62.20
2018-03-07T19:59:31.473Z,61.20
2018-03-07T20:01:59.056Z,61.20
2018-03-07T20:04:27.405Z,61.80
2018-03-07T20:06:54.985Z,61.70
2018-03-07T20:09:23.332Z,62.30
2018-03-07T20:11:50.893Z,63.00
2018-03-07T20:14:18.481Z,61.80
2018-03-07T20:16:46.810Z,62.20
2018-03-07T20:19:14.402Z,62.20
2018-03-07T20:21:41.966Z,62.60
2018-03-07T20:24:09.535Z,62.00
2018-03-07T20:26:37.893Z,61.20
2018-03-07T20:29:05.458Z,61.10
2018-03-07T20:31:33.045Z,60.90
2018-03-07T20:34:00.631Z,61.00
2018-03-07T20:36:28.214Z,61.30
2018-03-07T20:38:56.541Z,61.20
2018-03-07T20:41:24.135Z,61.20
2018-03-07T20:43:51.703Z,60.90
2018-03-07T20:46:19.288Z,60.90
2018-03-07T20:48:46.852Z,60.40
2018-03-07T20:51:14.444Z,61.60
2018-03-07T20:53:42.009Z,61.20
2018-03-07T20:56:09.615Z,61.30
2018-03-07T20:58:37.213Z,61.70
2018-03-07T21:01:05.623Z,62.10
2018-03-07T21:03:33.184Z,62.10
2018-03-07T21:06:00.772Z,61.40
2018-03-07T21:08:28.372Z,62.20
2018-03-07T21:10:55.962Z,61.80
2018-03-07T21:13:23.517Z,61.70
2018-03-07T21:15:51.113Z,62.70
2018-03-07T21:18:18.690Z,61.40
2018-03-07T21:20:46.288Z,61.80
2018-03-07T21:23:13.855Z,62.30
2018-03-07T21:25:41.449Z,61.80
2018-03-07T21:28:09.020Z,62.00
2018-03-07T21:30:36.620Z,61.60
2018-03-07T21:33:04.181Z,61.40
2018-03-07T21:35:31.795Z,61.00
2018-03-07T21:37:59.353Z,61.40
2018-03-07T21:40:26.918Z,60.80
2018-03-07T21:42:54.528Z,61.00
2018-03-07T21:45:22.138Z,60.70
2018-03-07T21:47:49.724Z,61.30
2018-03-07T21:50:17.301Z,61.50
2018-03-07T21:52:44.880Z,60.80
2018-03-07T21:55:12.441Z,61.00
2018-03-07T21:57:40.043Z,61.20
2018-03-07T22:00:08.370Z,60.90
2018-03-07T22:02:35.965Z,60.90
2018-03-07T22:05:03.534Z,60.40
2018-03-07T22:07:31.885Z,60.00
2018-03-07T22:09:59.444Z,60.00
2018-03-07T22:12:27.039Z,60.20
2018-03-07T22:14:55.369Z,60.20
2018-03-07T22:17:22.954Z,60.20
2018-03-07T22:19:50.521Z,61.10
2018-03-07T22:22:18.109Z,62.60
2018-03-07T22:24:45.671Z,62.60
2018-03-07T22:27:13.262Z,62.80
2018-03-07T22:29:40.825Z,62.80
2018-03-07T22:32:08.413Z,63.00
2018-03-07T22:34:35.972Z,63.10
2018-03-07T22:37:03.564Z,63.10
2018-03-07T22:39:31.122Z,62.20
2018-03-07T22:41:58.855Z,62.10
2018-03-07T22:44:26.314Z,62.20
2018-03-07T22:46:53.872Z,62.10
2018-03-07T22:49:21.466Z,62.10
2018-03-07T22:51:49.068Z,62.00
2018-03-07T22:54:16.656Z,61.10
2018-03-07T22:56:44.225Z,62.80
2018-03-07T22:59:11.817Z,63.30
2018-03-07T23:01:39.380Z,62.10
2018-03-07T23:04:07.053Z,61.40
2018-03-07T23:06:34.614Z,62.50
2018-03-07T23:09:02.204Z,63.10
2018-03-07T23:11:29.775Z,63.10
2018-03-07T23:13:58.128Z,61.90
2018-03-07T23:16:25.692Z,61.70
2018-03-07T23:18:53.307Z,63.20
2018-03-07T23:21:20.868Z,63.70
2018-03-07T23:23:48.459Z,62.90
2018-03-07T23:26:16.025Z,62.10
2018-03-07T23:28:43.612Z,63.40
2018-03-07T23:31:11.940Z,63.20
2018-03-07T23:33:39.525Z,63.20
2018-03-07T23:36:07.093Z,63.20
2018-03-07T23:38:35.441Z,64.10
2018-03-07T23:41:03.001Z,64.00
2018-03-07T23:43:30.598Z,63.10
2018-03-07T23:45:58.156Z,63.30
2018-03-07T23:48:26.518Z,64.20
2018-03-07T23:50:54.093Z,64.70
2018-03-07T23:53:21.682Z,64.40
2018-03-07T23:55:49.250Z,63.60
2018-03-07T23:58:16.858Z,64.50
